KABE

Lehigh Valley International Airport

Airport
ICAO code
KABE
IATA Code
ABE
Summary
ICAO Region
NAM
ICAO Territory
Location

Allentown, Pennsylvania,

Serving
Allentown
Elevation
393 ft
Coordinates
40° 39' 6" N , 75° 26' 35" W
KCC
Metar
Observation
KABE 081951Z 35009KT 10SM BKN044 08/M01 A3023 RMK AO2 SLP238 T00831006
Station
Allentown, Lehigh Valley International Airport
Date/Time
2022-12-08 19:51:00
Wind direction
350°
Wind speed
09 kts
Lowest cloud amount
broken clouds
Temperature
8.3°C
Dew point
-0.6°C
Humidity
53%
Weather condition
n/a

Description

Allentown Lehigh Valley, formerly Allentown-Bethlehem-Easton International Airport, is a public airport in Hanover Township, Lehigh County, Pennsylvania.

Climatology

Humid continental climate (Köppen climate classification Dfa) - characterized by four seasons: cold, windy, snowy winters, mild springs, hot, humid summers, and crisp and relatively short autumns. Precipitation reaches its lowest in January and February and peaks in summer and latter half of spring.

Airport map

Aerial View

SKYbrary Partners:

Safety knowledge contributed by: